Cape Peony — 3FDX6 — position and weather

sailwx.info

Track history (hours):
 
Tides and Currents Weather Stations Pressure Air Temp Water Temp Dewpoint Dewpoint Depression Visibility Wind Speed Wind Dir Waves Ship Positions

Cape Peony

Last reported at 2018-Apr-27 09:04 UTC. Time now 2018-May-23 01:04 UTC.
Position N 01°31' E 104°35'.
Warning: this ship's position is 25 days out of date.

Length 292 m; draft 18.5 m.

Type: Cargo ship. MMSI: 373590000.

Date/timePositionNaut miles runAvg speedWind from/ knotsBaromVisibWave heightAir tempDewpointWater temp
2018-Apr-27 09:04N 01°31' E 104°35'213.5
2018-Apr-27 08:57N 01°29' E 104°34'611.8
2018-Apr-27 08:28N 01°26' E 104°30'711.9
2018-Apr-27 07:54N 01°21' E 104°24'613.1
2018-Apr-27 07:26N 01°17' E 104°20'613.0
2018-Apr-27 06:56N 01°16' E 104°13'613.1
2018-Apr-27 06:27N 01°15' E 104°07'612.3
2018-Apr-27 05:58N 01°15' E 104°01'612.8
2018-Apr-27 05:30N 01°13' E 103°55'713.2
2018-Apr-27 04:59N 01°10' E 103°49'612.7
2018-Apr-27 04:30N 01°07' E 103°44'612.1
2018-Apr-27 03:59N 01°03' E 103°39'611.7
2018-Apr-27 03:29N 01°06' E 103°34'611.9
2018-Apr-27 02:59N 01°09' E 103°29'612.6
2018-Apr-27 02:30N 01°13' E 103°24'612.2
2018-Apr-27 01:59N 01°17' E 103°19'611.8
2018-Apr-27 01:28N 01°21' E 103°14'3812.3
2018-Apr-26 22:20N 01°41' E 102°41'  
Track history (hours):
 
Tides and Currents Weather Stations Pressure Air Temp Water Temp Dewpoint Dewpoint Depression Visibility Wind Speed Wind Dir Waves Ship Positions

Cape Peony

Last reported at 2018-Apr-27 09:04 UTC. Time now 2018-May-23 01:04 UTC.
Position N 01°31' E 104°35'.
Warning: this ship's position is 25 days out of date.

Length 292 m; draft 18.5 m.

Type: Cargo ship. MMSI: 373590000.

Date/timePositionNaut miles runAvg speedWind from/ knotsBaromVisibWave heightAir tempDewpointWater temp
2018-Apr-27 09:04N 01°31' E 104°35'213.5
2018-Apr-27 08:57N 01°29' E 104°34'611.8
2018-Apr-27 08:28N 01°26' E 104°30'711.9
2018-Apr-27 07:54N 01°21' E 104°24'613.1
2018-Apr-27 07:26N 01°17' E 104°20'613.0
2018-Apr-27 06:56N 01°16' E 104°13'613.1
2018-Apr-27 06:27N 01°15' E 104°07'612.3
2018-Apr-27 05:58N 01°15' E 104°01'612.8
2018-Apr-27 05:30N 01°13' E 103°55'713.2
2018-Apr-27 04:59N 01°10' E 103°49'612.7
2018-Apr-27 04:30N 01°07' E 103°44'612.1
2018-Apr-27 03:59N 01°03' E 103°39'611.7
2018-Apr-27 03:29N 01°06' E 103°34'611.9
2018-Apr-27 02:59N 01°09' E 103°29'612.6
2018-Apr-27 02:30N 01°13' E 103°24'612.2
2018-Apr-27 01:59N 01°17' E 103°19'611.8
2018-Apr-27 01:28N 01°21' E 103°14'3812.3
2018-Apr-26 22:20N 01°41' E 102°41'  

Dump ship's entire track history